This is the latest recevied weather packets stored in our database for station/object K3BAY-1. If no packets are shown the sender has not sent any weather packets the latest 10 day(s).
| Time | Temp. | Humidity | Pressure | Rain* | Wind** | Luminosity | Snow |
|---|---|---|---|---|---|---|---|
| 1777584468 | 19.44° C | 41% | 1009.4 hPa | 0 mm | - | 92 W/m² | - |
| 1777584165 | 19.44° C | 40% | 1009.4 hPa | 0 mm | - | 87 W/m² | - |
| 1777583864 | 20° C | 41% | 1009.4 hPa | 0 mm | - | 84 W/m² | - |
| 1777583560 | 20.56° C | 38% | 1009.1 hPa | 0 mm | - | 90 W/m² | - |
| 1777583259 | 20.56° C | 38% | 1009.1 hPa | 0 mm | - | 90 W/m² | - |
| 1777582958 | 21.11° C | 38% | 1009.1 hPa | 0 mm | - | 491 W/m² | - |
| 1777582656 | 21.11° C | 38% | 1009.1 hPa | 0 mm | - | 491 W/m² | - |
| 1777582351 | 21.11° C | 40% | 1009.1 hPa | 0 mm | - | 491 W/m² | - |
| 1777582049 | 21.11° C | 41% | 1009.4 hPa | 0 mm | - | 518 W/m² | - |
| 1777581573 | 21.67° C | 39% | 1009.4 hPa | 0 mm | - | 128 W/m² | - |
| 1777581268 | 21.67° C | 39% | 1009.4 hPa | 0 mm | - | 128 W/m² | - |
| 1777580963 | 21.67° C | 38% | 1009.1 hPa | 0 mm | - | 555 W/m² | - |
| 1777580663 | 20.56° C | 40% | 1009.4 hPa | 0 mm | - | 104 W/m² | - |
| 1777580359 | 20.56° C | 41% | 1009.4 hPa | 0 mm | - | 536 W/m² | - |
| 1777580055 | 20° C | 44% | 1009.4 hPa | 0 mm | - | 214 W/m² | - |
| 1777579752 | 20° C | 44% | 1009.4 hPa | 0 mm | - | 88 W/m² | - |
| 1777579449 | 20° C | 44% | 1009.4 hPa | 0 mm | - | 88 W/m² | - |
| 1777579144 | 21.67° C | 43% | 1009.1 hPa | 0 mm | - | 120 W/m² | - |
| 1777578839 | 21.67° C | 43% | 1009.1 hPa | 0 mm | - | 120 W/m² | - |
| 1777578535 | 22.22° C | 40% | 1009.1 hPa | 0 mm | - | 693 W/m² | - |
| 1777578230 | 21.67° C | 40% | 1009.1 hPa | 0 mm | - | 639 W/m² | - |
| 1777577926 | 21.67° C | 40% | 1009.1 hPa | 0 mm | - | 639 W/m² | - |
| 1777577621 | 21.67° C | 42% | 1009.1 hPa | 0 mm | - | 658 W/m² | - |
| 1777577319 | 21.67° C | 42% | 1009.1 hPa | 0 mm | - | 658 W/m² | - |
| 1777577014 | 21.67° C | 39% | 1009.1 hPa | 0 mm | - | 637 W/m² | - |
* Rain latest hour (hover to see other rain measurements)
** Current wind speed in m/s (hover to see current wind gust speed)